createdAt,value
2023-03-21T00:01:16.643Z,11.20
2023-03-21T00:03:46.982Z,11.20
2023-03-21T00:06:15.528Z,11.20
2023-03-21T00:08:44.819Z,11.20
2023-03-21T00:11:14.333Z,11.20
2023-03-21T00:13:43.619Z,11.20
2023-03-21T00:16:19.127Z,11.10
2023-03-21T00:18:59.031Z,11.20
2023-03-21T00:21:48.806Z,11.10
2023-03-21T00:24:23.034Z,11.20
2023-03-21T00:26:51.975Z,11.10
2023-03-21T00:29:20.263Z,11.10
2023-03-21T00:31:48.492Z,11.10
2023-03-21T00:34:22.759Z,11.20
2023-03-21T00:37:01.792Z,11.10
2023-03-21T00:39:30.083Z,11.20
2023-03-21T00:41:58.337Z,11.20
2023-03-21T00:44:26.663Z,11.20
2023-03-21T00:47:06.500Z,11.20
2023-03-21T00:49:38.644Z,11.20
2023-03-21T00:52:17.198Z,11.20
2023-03-21T00:54:51.243Z,11.20
2023-03-21T00:57:20.388Z,11.20
2023-03-21T00:59:50.504Z,11.20
2023-03-21T01:02:23.349Z,11.30
2023-03-21T01:04:53.363Z,11.20
2023-03-21T01:07:22.052Z,11.30
2023-03-21T01:09:51.004Z,11.30
2023-03-21T01:12:19.449Z,11.30
2023-03-21T01:14:47.877Z,11.30
2023-03-21T01:17:16.248Z,11.30
2023-03-21T01:19:51.482Z,11.30
2023-03-21T01:22:22.448Z,11.30
2023-03-21T01:24:55.547Z,11.30
2023-03-21T01:27:26.734Z,11.30
2023-03-21T01:29:55.090Z,11.40
2023-03-21T01:32:23.412Z,11.40
2023-03-21T01:34:51.803Z,11.50
2023-03-21T01:37:21.622Z,11.50
2023-03-21T01:39:49.996Z,11.50
2023-03-21T01:42:18.369Z,11.50
2023-03-21T01:44:58.059Z,11.40
2023-03-21T01:47:26.810Z,11.40
2023-03-21T01:49:59.000Z,11.40
2023-03-21T01:52:37.026Z,11.40
2023-03-21T01:55:12.170Z,11.40
2023-03-21T01:57:55.148Z,11.40
2023-03-21T02:00:29.672Z,11.40
2023-03-21T02:03:11.165Z,11.40
2023-03-21T02:05:50.616Z,11.40
2023-03-21T02:08:22.281Z,11.40
2023-03-21T02:10:53.114Z,11.40
2023-03-21T02:13:21.789Z,11.30
2023-03-21T02:16:00.356Z,11.30
2023-03-21T02:18:37.005Z,11.30
2023-03-21T02:21:46.741Z,11.40
2023-03-21T02:24:48.857Z,11.40
2023-03-21T02:27:22.062Z,11.30
2023-03-21T02:30:26.446Z,11.30
2023-03-21T02:33:20.498Z,11.40
2023-03-21T02:36:13.534Z,11.30
2023-03-21T02:38:54.351Z,11.40
2023-03-21T02:41:40.152Z,11.30
2023-03-21T02:44:16.251Z,11.30
2023-03-21T02:47:02.934Z,11.30
2023-03-21T02:49:42.058Z,11.30
2023-03-21T02:52:18.757Z,11.30
2023-03-21T02:54:52.113Z,11.30
2023-03-21T02:57:22.812Z,11.20
2023-03-21T02:59:56.854Z,11.20
2023-03-21T03:02:30.972Z,11.20
2023-03-21T03:05:00.798Z,11.20
2023-03-21T03:07:40.902Z,11.10
2023-03-21T03:10:32.912Z,11.10
2023-03-21T03:13:15.103Z,11.00
2023-03-21T03:15:50.720Z,11.00
2023-03-21T03:18:28.219Z,11.00
2023-03-21T03:21:06.275Z,10.90
2023-03-21T03:23:39.074Z,10.90
2023-03-21T03:26:14.073Z,10.80
2023-03-21T03:28:47.474Z,10.80
2023-03-21T03:31:22.090Z,10.80
2023-03-21T03:33:53.565Z,10.70
2023-03-21T03:36:32.227Z,10.70
2023-03-21T03:39:05.387Z,10.70
2023-03-21T03:42:04.260Z,10.70
2023-03-21T03:44:28.724Z,10.60
2023-03-21T03:47:02.486Z,10.60
2023-03-21T03:49:34.631Z,10.60
2023-03-21T03:52:09.949Z,10.60
2023-03-21T03:54:41.345Z,10.70
2023-03-21T03:57:12.571Z,10.70
2023-03-21T03:59:42.292Z,10.70
2023-03-21T04:02:10.959Z,10.70
2023-03-21T04:04:39.598Z,10.60
2023-03-21T04:07:07.924Z,10.60
2023-03-21T04:09:44.164Z,10.60
2023-03-21T04:12:14.960Z,10.60
2023-03-21T04:14:46.956Z,10.60
2023-03-21T04:17:15.795Z,10.50
2023-03-21T04:19:45.623Z,10.50
2023-03-21T04:22:14.392Z,10.50
2023-03-21T04:24:42.984Z,10.50
2023-03-21T04:27:11.561Z,10.40
2023-03-21T04:29:41.470Z,10.40
2023-03-21T04:32:16.493Z,10.30
2023-03-21T04:34:50.315Z,10.30
2023-03-21T04:37:19.367Z,10.30
2023-03-21T04:39:48.124Z,10.30
2023-03-21T04:42:18.613Z,10.20
2023-03-21T04:44:48.845Z,10.20
2023-03-21T04:47:20.496Z,10.20
2023-03-21T04:49:49.410Z,10.20
2023-03-21T04:52:18.079Z,10.10
2023-03-21T04:54:46.385Z,10.10
2023-03-21T04:57:14.862Z,10.00
2023-03-21T04:59:43.348Z,10.00
2023-03-21T05:02:13.431Z,10.00
2023-03-21T05:04:42.263Z,10.00
2023-03-21T05:07:10.621Z,10.00
2023-03-21T05:09:39.303Z,9.90
2023-03-21T05:12:07.891Z,9.90
2023-03-21T05:14:36.204Z,9.90
2023-03-21T05:17:05.664Z,9.80
2023-03-21T05:19:40.840Z,9.80
2023-03-21T05:22:12.193Z,9.80
2023-03-21T05:24:42.074Z,9.80
2023-03-21T05:27:10.608Z,9.90
2023-03-21T05:29:38.845Z,9.90
2023-03-21T05:32:07.417Z,10.00
2023-03-21T05:34:37.339Z,10.00
2023-03-21T05:37:05.528Z,10.00
2023-03-21T05:39:33.838Z,10.10
2023-03-21T05:42:02.191Z,10.10
2023-03-21T05:44:30.428Z,10.10
2023-03-21T05:46:58.770Z,10.10
2023-03-21T05:49:27.153Z,10.10
2023-03-21T05:51:56.998Z,10.10
2023-03-21T05:54:25.433Z,10.10
2023-03-21T05:56:53.725Z,10.10
2023-03-21T05:59:22.185Z,10.10
2023-03-21T06:01:50.460Z,10.20
2023-03-21T06:04:21.496Z,10.20
2023-03-21T06:06:51.021Z,10.30
2023-03-21T06:09:20.804Z,10.30
2023-03-21T06:11:50.835Z,10.40
2023-03-21T06:14:19.563Z,10.50
2023-03-21T06:16:47.953Z,10.50
2023-03-21T06:19:16.583Z,10.60
2023-03-21T06:21:44.810Z,10.60
2023-03-21T06:24:13.656Z,10.60
2023-03-21T06:26:43.719Z,10.60
2023-03-21T06:29:15.677Z,10.60
2023-03-21T06:31:44.051Z,10.60
2023-03-21T06:34:12.362Z,10.60
2023-03-21T06:36:41.124Z,10.60
2023-03-21T06:39:10.690Z,10.70
2023-03-21T06:41:39.311Z,10.60
2023-03-21T06:44:09.101Z,10.70
2023-03-21T06:46:37.404Z,10.70
2023-03-21T06:49:05.860Z,10.80
2023-03-21T06:51:34.039Z,10.80
2023-03-21T06:54:02.302Z,10.90
2023-03-21T06:56:30.855Z,10.90
2023-03-21T06:58:59.088Z,11.00
2023-03-21T07:01:30.751Z,11.00
2023-03-21T07:03:59.751Z,11.10
2023-03-21T07:06:28.742Z,11.20
2023-03-21T07:08:57.611Z,11.20
2023-03-21T07:11:27.107Z,11.30
2023-03-21T07:13:55.708Z,11.40
2023-03-21T07:16:25.076Z,11.40
2023-03-21T07:18:54.978Z,11.50
2023-03-21T07:21:23.424Z,11.50
2023-03-21T07:23:51.680Z,11.60
2023-03-21T07:26:19.975Z,11.60
2023-03-21T07:28:48.367Z,11.60
2023-03-21T07:31:19.790Z,11.70
2023-03-21T07:33:48.083Z,11.80
2023-03-21T07:36:17.959Z,11.90
2023-03-21T07:38:47.294Z,11.90
2023-03-21T07:43:44.764Z,12.10
2023-03-21T07:46:12.999Z,12.10
2023-03-21T07:48:41.416Z,12.20
2023-03-21T07:51:09.927Z,12.30
2023-03-21T07:53:42.020Z,12.30
2023-03-21T07:56:11.107Z,12.40
2023-03-21T07:58:39.341Z,12.50
2023-03-21T08:01:07.953Z,12.60
2023-03-21T08:03:36.260Z,12.70
2023-03-21T08:06:04.610Z,12.80
2023-03-21T08:08:33.731Z,12.80
2023-03-21T08:11:05.172Z,12.90
2023-03-21T08:13:33.569Z,13.00
2023-03-21T08:16:01.910Z,13.10
2023-03-21T08:18:30.557Z,13.10
2023-03-21T08:20:59.798Z,13.20
2023-03-21T08:23:28.140Z,13.40
2023-03-21T08:25:56.856Z,13.50
2023-03-21T08:28:26.576Z,13.60
2023-03-21T08:30:54.763Z,13.80
2023-03-21T08:33:23.288Z,14.00
2023-03-21T08:35:51.664Z,14.20
2023-03-21T08:38:19.978Z,14.50
2023-03-21T08:40:48.270Z,14.80
2023-03-21T08:43:18.160Z,14.80
2023-03-21T08:45:47.844Z,14.90
2023-03-21T08:48:16.305Z,14.90
2023-03-21T08:50:47.541Z,14.90
2023-03-21T08:53:15.970Z,14.90
2023-03-21T08:55:45.398Z,14.80
2023-03-21T08:58:13.849Z,15.00
2023-03-21T09:00:42.124Z,15.00
2023-03-21T09:03:11.883Z,15.00
2023-03-21T09:05:40.331Z,15.00
2023-03-21T09:08:08.751Z,15.00
2023-03-21T09:10:36.969Z,14.80
2023-03-21T09:13:05.228Z,14.80
2023-03-21T09:15:35.564Z,14.90
2023-03-21T09:18:13.556Z,15.10
2023-03-21T09:20:45.208Z,15.10
2023-03-21T09:23:14.648Z,15.10
2023-03-21T09:25:43.623Z,15.10
2023-03-21T09:28:16.640Z,15.10
2023-03-21T09:30:45.627Z,15.10
2023-03-21T09:33:21.374Z,15.20
2023-03-21T09:35:52.211Z,15.30
2023-03-21T09:38:20.958Z,15.30
2023-03-21T09:40:58.387Z,15.50
2023-03-21T09:43:36.306Z,15.80
2023-03-21T09:46:09.197Z,16.10
2023-03-21T09:48:54.339Z,16.80
2023-03-21T09:51:27.412Z,17.30
2023-03-21T09:53:57.457Z,18.00
2023-03-21T09:56:26.216Z,18.60
2023-03-21T09:58:59.571Z,19.10
2023-03-21T10:01:33.229Z,19.00
2023-03-21T10:04:02.892Z,18.40
2023-03-21T10:06:32.990Z,18.00
2023-03-21T10:09:07.557Z,17.90
2023-03-21T10:11:42.826Z,18.00
2023-03-21T10:14:15.285Z,18.40
2023-03-21T10:16:44.939Z,18.70
2023-03-21T10:19:14.524Z,18.60
2023-03-21T10:22:03.863Z,18.30
2023-03-21T10:24:35.478Z,18.20
2023-03-21T10:27:04.465Z,17.70
2023-03-21T10:29:43.486Z,17.40
2023-03-21T10:32:13.058Z,17.30
2023-03-21T10:34:43.638Z,17.00
2023-03-21T10:37:14.228Z,16.90
2023-03-21T10:39:44.304Z,16.70
2023-03-21T10:42:21.668Z,16.60
2023-03-21T10:44:50.638Z,16.60
2023-03-21T10:47:21.578Z,17.10
2023-03-21T10:50:06.971Z,17.90
2023-03-21T10:52:39.547Z,18.60
2023-03-21T10:55:18.837Z,19.10
2023-03-21T10:57:47.505Z,19.50
2023-03-21T11:00:21.546Z,19.20
2023-03-21T11:02:50.563Z,18.70
2023-03-21T11:05:21.067Z,18.50
2023-03-21T11:07:57.382Z,18.80
2023-03-21T11:10:29.847Z,19.30
2023-03-21T11:12:58.979Z,20.10
2023-03-21T11:15:29.359Z,20.20
2023-03-21T11:17:57.687Z,20.60
2023-03-21T11:20:25.823Z,21.00
2023-03-21T11:22:57.384Z,20.90
2023-03-21T11:25:28.962Z,20.90
2023-03-21T11:27:57.253Z,20.80
2023-03-21T11:30:30.006Z,20.20
2023-03-21T11:32:59.012Z,20.10
2023-03-21T11:35:30.436Z,20.00
2023-03-21T11:38:00.185Z,20.00
2023-03-21T11:40:29.388Z,20.10
2023-03-21T11:42:58.694Z,20.10
2023-03-21T11:45:28.218Z,20.60
2023-03-21T11:47:58.075Z,21.10
2023-03-21T11:50:32.800Z,20.80
2023-03-21T11:53:07.552Z,20.50
2023-03-21T11:55:46.494Z,20.30
2023-03-21T11:58:26.585Z,20.00
2023-03-21T12:00:58.235Z,19.90
2023-03-21T12:03:48.290Z,20.60
2023-03-21T12:06:21.062Z,21.10
2023-03-21T12:08:55.795Z,21.80
2023-03-21T12:11:28.879Z,22.00
2023-03-21T12:14:03.382Z,21.40
2023-03-21T12:16:55.458Z,21.10
2023-03-21T12:19:44.393Z,20.90
2023-03-21T12:22:15.924Z,20.30
2023-03-21T12:24:48.877Z,20.10
2023-03-21T12:27:20.616Z,20.50
2023-03-21T12:29:57.092Z,21.00
2023-03-21T12:32:32.517Z,21.50
2023-03-21T12:35:17.472Z,21.80
2023-03-21T12:37:53.505Z,22.20
2023-03-21T12:40:32.604Z,22.60
2023-03-21T12:43:07.091Z,22.70
2023-03-21T12:45:46.698Z,22.90
2023-03-21T12:48:22.420Z,22.70
2023-03-21T12:50:51.423Z,23.10
2023-03-21T12:53:28.905Z,23.70
2023-03-21T12:56:01.487Z,23.90
2023-03-21T12:58:31.921Z,24.00
2023-03-21T13:01:02.161Z,23.60
2023-03-21T13:03:39.887Z,23.70
2023-03-21T13:06:11.261Z,23.60
2023-03-21T13:08:44.211Z,22.80
2023-03-21T13:11:15.369Z,22.00
2023-03-21T13:13:46.481Z,21.40
2023-03-21T13:16:17.004Z,21.50
2023-03-21T13:18:56.527Z,21.50
2023-03-21T13:21:30.129Z,20.90
2023-03-21T13:24:02.313Z,20.30
2023-03-21T13:26:40.827Z,20.00
2023-03-21T13:29:15.845Z,19.70
2023-03-21T13:31:52.053Z,19.60
2023-03-21T13:34:22.628Z,19.40
2023-03-21T13:36:51.954Z,19.20
2023-03-21T13:39:22.180Z,18.80
2023-03-21T13:41:52.303Z,18.70
2023-03-21T13:44:24.483Z,18.60
2023-03-21T13:46:56.369Z,18.40
2023-03-21T13:49:29.735Z,18.40
2023-03-21T13:51:59.355Z,18.30
2023-03-21T13:54:45.050Z,18.40
2023-03-21T13:57:23.841Z,18.50
2023-03-21T14:00:13.867Z,18.60
2023-03-21T14:02:52.067Z,18.70
2023-03-21T14:05:22.571Z,18.50
2023-03-21T14:07:54.557Z,18.40
2023-03-21T14:10:25.509Z,18.20
2023-03-21T14:12:55.406Z,18.20
2023-03-21T14:15:25.094Z,18.20
2023-03-21T14:17:54.748Z,18.10
2023-03-21T14:20:24.574Z,18.10
2023-03-21T14:22:53.078Z,18.20
2023-03-21T14:25:21.796Z,18.30
2023-03-21T14:27:50.909Z,18.20
2023-03-21T14:30:24.115Z,18.10
2023-03-21T14:32:52.543Z,18.10
2023-03-21T14:35:22.325Z,18.10
2023-03-21T14:37:51.485Z,18.10
2023-03-21T14:40:21.627Z,18.00
2023-03-21T14:42:50.470Z,17.90
2023-03-21T14:45:20.838Z,17.80
2023-03-21T14:48:01.300Z,17.90
2023-03-21T14:50:36.801Z,17.80
2023-03-21T14:53:05.030Z,17.70
2023-03-21T14:55:33.124Z,17.80
2023-03-21T14:58:01.160Z,17.70
2023-03-21T15:00:30.648Z,17.60
2023-03-21T15:03:01.061Z,17.70
2023-03-21T15:05:31.919Z,17.60
2023-03-21T15:08:00.818Z,17.60
2023-03-21T15:10:31.215Z,17.70
2023-03-21T15:13:00.155Z,17.60
2023-03-21T15:15:29.414Z,17.60
2023-03-21T15:17:59.724Z,17.60
2023-03-21T15:20:33.344Z,17.60
2023-03-21T15:23:03.610Z,17.60
2023-03-21T15:25:33.477Z,17.60
2023-03-21T15:28:01.607Z,17.40
2023-03-21T15:30:30.394Z,17.40
2023-03-21T15:32:58.888Z,17.30
2023-03-21T15:35:28.492Z,17.30
2023-03-21T15:37:59.121Z,17.20
2023-03-21T15:40:31.420Z,17.20
2023-03-21T15:43:14.942Z,17.20
2023-03-21T15:45:48.132Z,17.20
2023-03-21T15:48:16.456Z,17.10
2023-03-21T15:50:48.126Z,17.10
2023-03-21T15:53:19.059Z,17.10
2023-03-21T15:55:50.125Z,17.10
2023-03-21T15:58:19.745Z,17.00
2023-03-21T16:00:52.175Z,16.90
2023-03-21T16:03:23.953Z,16.80
2023-03-21T16:06:05.480Z,16.80
2023-03-21T16:08:36.480Z,16.80
2023-03-21T16:11:08.490Z,16.80
2023-03-21T16:13:36.470Z,16.80
2023-03-21T16:16:04.533Z,16.80
2023-03-21T16:18:32.659Z,16.80
2023-03-21T16:21:01.153Z,16.80
2023-03-21T16:23:30.056Z,16.70
2023-03-21T16:25:59.852Z,16.70
2023-03-21T16:28:27.882Z,16.70
2023-03-21T16:30:55.892Z,16.80
2023-03-21T16:33:25.510Z,16.80
2023-03-21T16:35:54.268Z,16.80
2023-03-21T16:38:22.403Z,16.80
2023-03-21T16:40:51.245Z,16.80
2023-03-21T16:43:20.763Z,16.70
2023-03-21T16:45:49.033Z,16.70
2023-03-21T16:48:17.804Z,16.60
2023-03-21T16:50:47.545Z,16.60
2023-03-21T16:53:17.258Z,16.50
2023-03-21T16:55:45.241Z,16.50
2023-03-21T16:58:15.681Z,16.50
2023-03-21T17:00:45.452Z,16.40
2023-03-21T17:03:15.459Z,16.30
2023-03-21T17:05:43.490Z,16.40
2023-03-21T17:08:15.519Z,16.30
2023-03-21T17:10:43.856Z,16.30
2023-03-21T17:13:11.921Z,16.30
2023-03-21T17:15:41.614Z,16.20
2023-03-21T17:18:11.332Z,16.10
2023-03-21T17:20:41.727Z,16.10
2023-03-21T17:23:10.503Z,16.00
2023-03-21T17:25:38.562Z,16.00
2023-03-21T17:28:06.795Z,15.90
2023-03-21T17:30:35.635Z,15.80
2023-03-21T17:33:04.387Z,15.80
2023-03-21T17:35:33.924Z,15.70
2023-03-21T17:38:01.963Z,15.60
2023-03-21T17:40:31.212Z,15.60
2023-03-21T17:42:59.714Z,15.60
2023-03-21T17:45:27.893Z,15.50
2023-03-21T17:47:56.497Z,15.40
2023-03-21T17:50:26.120Z,15.30
2023-03-21T17:52:57.568Z,15.30
2023-03-21T17:55:26.313Z,15.20
2023-03-21T17:57:54.300Z,15.10
2023-03-21T18:00:24.074Z,15.10
2023-03-21T18:02:52.219Z,15.00
2023-03-21T18:05:21.426Z,14.90
2023-03-21T18:10:40.757Z,15.00
2023-03-21T18:13:09.336Z,15.00
2023-03-21T18:15:38.317Z,15.00
2023-03-21T18:18:06.786Z,14.90
2023-03-21T18:20:51.245Z,14.80
2023-03-21T18:23:20.187Z,14.80
2023-03-21T18:25:49.991Z,14.80
2023-03-21T18:28:21.089Z,14.80
2023-03-21T18:31:09.468Z,14.70
2023-03-21T18:33:40.510Z,14.60
2023-03-21T18:36:09.889Z,14.60
2023-03-21T18:38:38.655Z,14.50
2023-03-21T18:41:09.856Z,14.50
2023-03-21T18:44:02.685Z,14.40
2023-03-21T18:46:27.437Z,14.40
2023-03-21T18:48:55.822Z,14.30
2023-03-21T18:51:24.292Z,14.30
2023-03-21T18:53:52.818Z,14.20
2023-03-21T18:57:19.571Z,14.10
2023-03-21T18:59:14.121Z,14.00
2023-03-21T19:01:42.479Z,13.90
2023-03-21T19:04:23.149Z,13.90
2023-03-21T19:06:57.750Z,13.90
2023-03-21T19:09:31.356Z,13.70
2023-03-21T19:12:02.006Z,13.50
2023-03-21T19:14:31.623Z,13.40
2023-03-21T19:17:55.728Z,13.20
2023-03-21T19:19:48.395Z,13.10
2023-03-21T19:22:16.765Z,13.00
2023-03-21T19:24:47.105Z,13.00
2023-03-21T19:27:19.838Z,13.00
2023-03-21T19:30:02.976Z,13.00
2023-03-21T19:32:36.601Z,13.10
2023-03-21T19:35:05.135Z,13.10
2023-03-21T19:37:35.199Z,13.10
2023-03-21T19:40:06.418Z,13.10
2023-03-21T19:42:37.031Z,13.10
2023-03-21T19:45:06.310Z,13.10
2023-03-21T19:47:34.734Z,13.10
2023-03-21T19:52:51.383Z,12.90
2023-03-21T19:55:19.938Z,12.80
2023-03-21T19:57:49.681Z,12.80
2023-03-21T20:00:18.979Z,12.80
2023-03-21T20:02:47.818Z,12.90
2023-03-21T20:05:17.903Z,12.90
2023-03-21T20:07:46.244Z,12.90
2023-03-21T20:10:14.730Z,12.90
2023-03-21T20:12:43.138Z,12.80
2023-03-21T20:15:19.287Z,12.70
2023-03-21T20:17:49.353Z,12.60
2023-03-21T20:20:18.449Z,12.70
2023-03-21T20:23:07.863Z,12.60
2023-03-21T20:25:37.288Z,12.60
2023-03-21T20:28:15.927Z,12.60
2023-03-21T20:30:53.092Z,12.70
2023-03-21T20:33:21.814Z,12.70
2023-03-21T20:38:40.189Z,12.70
2023-03-21T20:41:08.624Z,12.80
2023-03-21T20:44:24.379Z,12.80
2023-03-21T20:46:26.710Z,12.90
2023-03-21T20:48:55.244Z,12.90
2023-03-21T20:54:12.786Z,13.00
2023-03-21T20:56:41.715Z,13.00
2023-03-21T20:59:23.243Z,13.10
2023-03-21T21:01:55.902Z,13.10
2023-03-21T21:04:41.286Z,13.00
2023-03-21T21:07:16.215Z,13.10
2023-03-21T21:09:44.765Z,13.00
2023-03-21T21:12:14.390Z,12.90
2023-03-21T21:14:43.881Z,12.80
2023-03-21T21:20:02.993Z,12.60
2023-03-21T21:22:31.831Z,12.50
2023-03-21T21:25:00.087Z,12.40
2023-03-21T21:27:28.630Z,12.30
2023-03-21T21:29:57.720Z,12.30
2023-03-21T21:32:27.475Z,12.20
2023-03-21T21:34:56.235Z,12.20
2023-03-21T21:37:25.241Z,12.30
2023-03-21T21:39:54.165Z,12.30
2023-03-21T21:42:22.488Z,12.30
2023-03-21T21:44:50.768Z,12.30
2023-03-21T21:47:19.006Z,12.40
2023-03-21T21:49:49.021Z,12.30
2023-03-21T21:52:22.041Z,12.30
2023-03-21T21:54:50.663Z,12.40
2023-03-21T21:57:19.954Z,12.40
2023-03-21T21:59:48.468Z,12.40
2023-03-21T22:02:16.927Z,12.50
2023-03-21T22:04:45.164Z,12.50
2023-03-21T22:07:15.362Z,12.40
2023-03-21T22:09:44.527Z,12.40
2023-03-21T22:12:12.982Z,12.40
2023-03-21T22:14:41.174Z,12.40
2023-03-21T22:17:09.783Z,12.40
2023-03-21T22:19:40.181Z,12.40
2023-03-21T22:22:08.788Z,12.40
2023-03-21T22:24:38.635Z,12.40
2023-03-21T22:27:06.760Z,12.40
2023-03-21T22:29:35.068Z,12.40
2023-03-21T22:32:03.391Z,12.40
2023-03-21T22:34:31.686Z,12.50
2023-03-21T22:36:59.996Z,12.40
2023-03-21T22:39:28.754Z,12.50
2023-03-21T22:42:01.083Z,12.50
2023-03-21T22:44:34.585Z,12.50
2023-03-21T22:47:03.427Z,12.50
2023-03-21T22:49:32.510Z,12.50
2023-03-21T22:52:01.524Z,12.50
2023-03-21T22:54:30.044Z,12.50
2023-03-21T22:57:00.146Z,12.50
2023-03-21T22:59:29.162Z,12.50
2023-03-21T23:01:58.105Z,12.50
2023-03-21T23:04:27.429Z,12.50
2023-03-21T23:06:55.789Z,12.40
2023-03-21T23:09:24.196Z,12.50
2023-03-21T23:11:52.541Z,12.40
2023-03-21T23:14:22.904Z,12.50
2023-03-21T23:16:53.635Z,12.50
2023-03-21T23:19:25.497Z,12.50
2023-03-21T23:21:53.794Z,12.50
2023-03-21T23:24:22.201Z,12.50
2023-03-21T23:26:50.519Z,12.50
2023-03-21T23:29:18.837Z,12.50
2023-03-21T23:31:48.632Z,12.50
2023-03-21T23:34:20.826Z,12.50
2023-03-21T23:36:49.644Z,12.50
2023-03-21T23:39:18.966Z,12.50
2023-03-21T23:41:47.288Z,12.50
2023-03-21T23:44:16.317Z,12.50
2023-03-21T23:46:44.525Z,12.50
2023-03-21T23:49:15.189Z,12.50
2023-03-21T23:51:43.607Z,12.50
2023-03-21T23:54:12.070Z,12.50
2023-03-21T23:56:40.737Z,12.50
2023-03-21T23:59:09.403Z,12.50
